Date,TemperatureHighF,TemperatureAvgF,TemperatureLowF,DewpointHighF,DewpointAvgF,DewpointLowF,HumidityHigh,HumidityAvg,HumidityLow,PressureMaxIn,PressureMinIn,WindSpeedMaxMPH,WindSpeedAvgMPH,GustSpeedMaxMPH,PrecipitationSumIn
2013-11-1,72.5,57.7,41.7,23.3,16.1,6.8,41,20,14,29.44,29.32,24,6,24,0.00
2013-11-2,77.9,56.4,39.7,36.9,20.8,11.5,62,28,13,29.35,29.21,15,4,15,0.00
2013-11-3,64.8,55.2,43.3,36.5,12.8,1.8,65,19,15,29.35,29.23,23,6,24,0.00
2013-11-4,67.5,55.1,35.8,18.1,11.1,-1.3,27,17,15,29.35,29.23,23,8,23,0.00
2013-11-5,69.1,59.3,46.4,19.4,13.5,3.5,19,16,14,29.53,29.35,16,6,16,0.00
2013-11-6,68.7,57.7,41.2,19.2,11.9,0.9,19,16,14,29.56,29.47,22,7,22,0.00
2013-11-7,78.3,58.8,45.0,23.1,13.1,2.8,19,16,12,29.47,29.35,9,2,10,0.00
2013-11-8,78.4,57.8,41.7,27.8,17.1,3.8,42,22,12,29.38,29.23,10,2,11,0.00
2013-11-9,71.4,56.1,42.1,33.2,20.7,10.4,64,28,14,29.35,29.26,16,5,16,0.00
2013-11-10,73.0,54.8,40.1,33.8,21.1,13.2,56,29,13,29.41,29.32,9,2,9,0.00
2013-11-11,67.5,55.1,40.8,45.8,27.2,13.7,84,41,17,29.47,29.38,14,3,14,0.00
2013-11-12,76.1,59.9,46.6,24.0,18.0,8.9,27,20,13,29.56,29.44,12,3,13,0.00
2013-11-13,79.5,57.9,41.4,23.0,17.8,10.2,42,23,12,29.56,29.38,14,2,14,0.00
2013-11-14,74.5,55.0,42.1,43.1,27.5,17.1,74,39,13,29.41,29.18,13,4,13,0.00
2013-11-15,67.5,52.3,39.2,39.8,21.5,9.4,72,34,15,29.18,29.03,22,4,22,0.00
2013-11-16,65.3,50.8,37.4,37.0,23.2,11.7,68,37,15,29.23,29.09,14,5,14,0.00
2013-11-17,66.0,52.9,41.0,39.1,26.5,17.7,75,40,17,29.41,29.23,12,3,12,0.00
2013-11-18,63.0,50.1,37.9,37.2,26.0,16.1,76,43,18,29.44,29.38,16,4,16,0.00
2013-11-19,65.1,55.0,44.6,50.2,33.8,22.0,81,48,20,29.41,29.26,11,2,11,0.00
2013-11-20,64.6,56.9,53.2,56.8,48.3,33.5,86,74,33,29.26,29.15,12,3,12,0.00
2013-11-21,59.0,53.1,48.4,46.1,19.2,9.1,78,31,17,29.29,29.21,32,14,33,0.00
2013-11-22,67.1,54.7,46.4,17.8,11.1,5.0,21,17,15,29.32,29.21,30,13,30,0.00
2013-11-23,60.6,49.3,38.7,19.6,13.2,4.7,44,24,16,29.41,29.29,14,4,15,0.00
2013-11-24,63.1,47.5,35.8,29.4,21.4,14.3,67,39,16,29.56,29.41,11,2,11,0.00
2013-11-25,60.8,48.2,36.1,33.9,23.0,14.6,71,41,19,29.65,29.56,16,4,16,0.00
2013-11-26,59.2,51.9,42.4,28.4,21.3,14.6,55,31,19,29.59,29.35,20,7,20,0.00
2013-11-27,59.2,52.9,47.3,28.1,23.0,17.7,46,31,25,29.35,29.15,18,9,19,0.00
2013-11-28,66.7,54.2,42.3,24.9,18.1,10.6,46,26,15,29.38,29.18,13,4,13,0.00
2013-11-29,67.5,51.1,37.6,27.6,19.6,11.8,55,32,15,29.53,29.38,12,2,12,0.00
2013-11-30,66.4,50.1,37.4,30.1,20.6,11.9,60,34,15,29.59,29.47,13,3,13,0.00